Malcom, Iowa
Current Conditions -  °F | °C
As of 6:15 PM on Wednesday 22 Oct 2014 (Local Time) from KGGI Reporting Station
Clear Clear  
Wind Chill: 57°   Ceiling: Unl
Heat Index: 57°   Visibility: 10mi
Dew Point: 42°   Wind: 7mph
Humidity: 57%   Direction: 130°SE
Pressure: 30.15"   Gusts: NA
Location:  41.71°N, 92.56°W
Report Text: KGGI 222315Z AUTO 13006KT 10SM CLR 14/06 A3015 RMK AO2 T01400055
Loading
Personal Weather Stations






























Interactive Weather Map
Tropical Storm Tracking
New forecast layout! Learn more

10-Day Weather Forecast

Advertisements
Track Severe Weather on mobile